Bright Ocean — HOGQ — position and weather

sailwx.info

Track history (hours):
 
Tides and Currents Weather Stations Pressure Air Temp Water Temp Dewpoint Dewpoint Depression Visibility Wind Speed Wind Dir Waves Ship Positions

Bright Ocean

Last reported at 2016-Nov-23 07:33 UTC. Time now 2016-Dec-07 08:42 UTC.
Position N 49°01' W 126°33'.
Warning: this ship's position is 14 days out of date.

Length 178 m; draft 10.7 m.

Type: Cargo ship. MMSI: 373816000.

Date/timePositionNaut miles runAvg speedWind from/ knotsBaromVisibWave heightAir tempDewpointWater temp
2016-Nov-23 07:33N 49°01' W 126°33'1111.2
2016-Nov-23 06:33N 48°54' W 126°20'3210.6
2016-Nov-23 03:33N 48°32' W 125°44'9 9.3
2016-Nov-23 02:33N 48°30' W 125°30'2010.0
2016-Nov-23 00:33N 48°31' W 124°60'1110.8
2016-Nov-22 23:34N 48°31' W 124°44'1212.1
2016-Nov-22 22:33N 48°26' W 124°27'2512.4
2016-Nov-22 20:33N 48°17' W 123°52'1211.7
2016-Nov-22 19:31N 48°16' W 123°34'17 8.9
2016-Nov-22 17:33N 48°25' W 123°12'9 9.1
2016-Nov-22 16:33N 48°35' W 123°13'9 8.4
2016-Nov-22 15:32N 48°43' W 123°13'1010.2
2016-Nov-22 14:33N 48°49' W 123°01'1010.5
2016-Nov-22 13:33N 48°57' W 123°12'22 7.4
2016-Nov-22 10:33N 49°18' W 123°07'0 0.1
2016-Nov-22 09:33N 49°19' W 123°06'0 0.0
2016-Nov-22 08:33N 49°19' W 123°06'0 0.0
2016-Nov-22 07:33N 49°19' W 123°06'0 0.0
2016-Nov-22 05:33N 49°19' W 123°06'0 0.0
2016-Nov-22 04:33N 49°19' W 123°06'0 0.0
2016-Nov-22 03:33N 49°19' W 123°06'0 0.0
2016-Nov-22 02:33N 49°19' W 123°06'0 0.0
2016-Nov-21 23:33N 49°19' W 123°06'0 0.0
2016-Nov-21 21:33N 49°19' W 123°06'0 0.0
2016-Nov-21 17:33N 49°19' W 123°06'0 0.0
2016-Nov-21 14:33N 49°19' W 123°06'0 0.0
2016-Nov-21 13:33N 49°19' W 123°06'0 0.0
2016-Nov-21 12:33N 49°18' W 123°06'2 1.7
2016-Nov-21 11:33N 49°18' W 123°04'0 0.0
2016-Nov-21 10:33N 49°18' W 123°04'0 0.0
2016-Nov-21 08:33N 49°18' W 123°04'0 0.0
2016-Nov-21 07:33N 49°18' W 123°04'0 0.0
2016-Nov-21 05:33N 49°18' W 123°04'0 0.0
2016-Nov-21 04:33N 49°18' W 123°04'0 0.0
2016-Nov-21 02:33N 49°18' W 123°04'0 0.0
2016-Nov-21 00:33N 49°18' W 123°04'0 0.0
2016-Nov-20 22:33N 49°18' W 123°04'0 0.0
2016-Nov-20 21:33N 49°18' W 123°04'0 0.0
2016-Nov-20 17:33N 49°18' W 123°04'0 0.1
2016-Nov-20 16:33N 49°18' W 123°04'0 0.0
2016-Nov-20 14:33N 49°18' W 123°04'0 0.1
2016-Nov-20 13:33N 49°18' W 123°04'0 0.0
2016-Nov-20 12:33N 49°18' W 123°04'0 0.0
2016-Nov-20 09:33N 49°18' W 123°04'0 0.0
2016-Nov-20 08:33N 49°18' W 123°04'0 0.0
2016-Nov-20 07:33N 49°18' W 123°04'0 0.0
2016-Nov-20 06:33N 49°18' W 123°04'0 0.0
2016-Nov-20 05:33N 49°18' W 123°04'0 0.0
2016-Nov-20 04:33N 49°18' W 123°04'0 0.3
2016-Nov-20 03:33N 49°18' W 123°05'15 7.5
2016-Nov-20 01:33N 49°07' W 123°20'2411.8
2016-Nov-19 23:33N 48°47' W 123°01'1111.0
2016-Nov-19 22:33N 48°41' W 123°15'19 9.5
2016-Nov-19 20:33N 48°23' W 123°16'7 6.9
2016-Nov-19 19:33N 48°19' W 123°25'14 7.2
2016-Nov-19 17:33N 48°13' W 123°45'9 8.8
2016-Nov-19 16:33N 48°14' W 123°58'17 8.2
2016-Nov-19 14:32N 48°21' W 124°21'28 9.5
2016-Nov-19 11:33N 48°23' W 125°03'10111.2
2016-Nov-19 02:33N 46°43' W 125°18'1212.1
2016-Nov-19 01:33N 46°31' W 125°19'1212.3
2016-Nov-19 00:33N 46°19' W 125°18'1211.9
2016-Nov-18 23:33N 46°07' W 125°17'3712.2
2016-Nov-18 20:33N 45°30' W 125°16'42111.0
2016-Nov-17 06:23N 38°32' W 124°05'37 9.7
2016-Nov-17 02:33N 37°59' W 123°44'10110.0
2016-Nov-16 16:28N 36°28' W 122°48'7010.0
2016-Nov-16 09:29N 35°25' W 122°10'9 9.8
2016-Nov-16 08:33N 35°17' W 122°06'11 9.6
2016-Nov-16 07:23N 35°07' W 121°59'8 9.6
2016-Nov-16 06:33N 34°60' W 121°55'2110.3
2016-Nov-16 04:33N 34°41' W 121°44'7310.3
2016-Nov-15 21:29N 34°19' W 120°19'2211.2
2016-Nov-15 19:33N 34°13' W 119°54'1211.6
2016-Nov-15 18:30N 34°10' W 119°40'5911.9
2016-Nov-15 13:33N 33°46' W 118°36'1211.5
2016-Nov-15 12:33N 33°40' W 118°24'10 9.9
2016-Nov-15 11:33N 33°40' W 118°12'4 4.5
2016-Nov-15 10:33N 33°45' W 118°12'0 0.0
2016-Nov-15 07:31N 33°45' W 118°12'0 0.0
2016-Nov-15 06:31N 33°45' W 118°12'0 0.0
2016-Nov-15 05:49N 33°45' W 118°12'0 0.0
2016-Nov-15 03:31N 33°45' W 118°12'0 0.0
2016-Nov-15 02:10N 33°45' W 118°12'0 0.0
2016-Nov-14 23:31N 33°45' W 118°12'0 0.0
2016-Nov-14 19:31N 33°45' W 118°12'0 0.0
2016-Nov-14 17:28N 33°45' W 118°12'0 0.0
2016-Nov-14 16:28N 33°45' W 118°12'0 0.0
2016-Nov-14 15:04N 33°45' W 118°12'0 0.0
2016-Nov-14 08:13N 33°45' W 118°12'0 0.0
2016-Nov-13 23:07N 33°45' W 118°12'0 0.0
2016-Nov-13 10:31N 33°45' W 118°12'0 0.0
2016-Nov-13 08:31N 33°45' W 118°12'  
Track history (hours):
 
Tides and Currents Weather Stations Pressure Air Temp Water Temp Dewpoint Dewpoint Depression Visibility Wind Speed Wind Dir Waves Ship Positions

Bright Ocean

Last reported at 2016-Nov-23 07:33 UTC. Time now 2016-Dec-07 08:42 UTC.
Position N 49°01' W 126°33'.
Warning: this ship's position is 14 days out of date.

Length 178 m; draft 10.7 m.

Type: Cargo ship. MMSI: 373816000.

Date/timePositionNaut miles runAvg speedWind from/ knotsBaromVisibWave heightAir tempDewpointWater temp
2016-Nov-23 07:33N 49°01' W 126°33'1111.2
2016-Nov-23 06:33N 48°54' W 126°20'3210.6
2016-Nov-23 03:33N 48°32' W 125°44'9 9.3
2016-Nov-23 02:33N 48°30' W 125°30'2010.0
2016-Nov-23 00:33N 48°31' W 124°60'1110.8
2016-Nov-22 23:34N 48°31' W 124°44'1212.1
2016-Nov-22 22:33N 48°26' W 124°27'2512.4
2016-Nov-22 20:33N 48°17' W 123°52'1211.7
2016-Nov-22 19:31N 48°16' W 123°34'17 8.9
2016-Nov-22 17:33N 48°25' W 123°12'9 9.1
2016-Nov-22 16:33N 48°35' W 123°13'9 8.4
2016-Nov-22 15:32N 48°43' W 123°13'1010.2
2016-Nov-22 14:33N 48°49' W 123°01'1010.5
2016-Nov-22 13:33N 48°57' W 123°12'22 7.4
2016-Nov-22 10:33N 49°18' W 123°07'0 0.1
2016-Nov-22 09:33N 49°19' W 123°06'0 0.0
2016-Nov-22 08:33N 49°19' W 123°06'0 0.0
2016-Nov-22 07:33N 49°19' W 123°06'0 0.0
2016-Nov-22 05:33N 49°19' W 123°06'0 0.0
2016-Nov-22 04:33N 49°19' W 123°06'0 0.0
2016-Nov-22 03:33N 49°19' W 123°06'0 0.0
2016-Nov-22 02:33N 49°19' W 123°06'0 0.0
2016-Nov-21 23:33N 49°19' W 123°06'0 0.0
2016-Nov-21 21:33N 49°19' W 123°06'0 0.0
2016-Nov-21 17:33N 49°19' W 123°06'0 0.0
2016-Nov-21 14:33N 49°19' W 123°06'0 0.0
2016-Nov-21 13:33N 49°19' W 123°06'0 0.0
2016-Nov-21 12:33N 49°18' W 123°06'2 1.7
2016-Nov-21 11:33N 49°18' W 123°04'0 0.0
2016-Nov-21 10:33N 49°18' W 123°04'0 0.0
2016-Nov-21 08:33N 49°18' W 123°04'0 0.0
2016-Nov-21 07:33N 49°18' W 123°04'0 0.0
2016-Nov-21 05:33N 49°18' W 123°04'0 0.0
2016-Nov-21 04:33N 49°18' W 123°04'0 0.0
2016-Nov-21 02:33N 49°18' W 123°04'0 0.0
2016-Nov-21 00:33N 49°18' W 123°04'0 0.0
2016-Nov-20 22:33N 49°18' W 123°04'0 0.0
2016-Nov-20 21:33N 49°18' W 123°04'0 0.0
2016-Nov-20 17:33N 49°18' W 123°04'0 0.1
2016-Nov-20 16:33N 49°18' W 123°04'0 0.0
2016-Nov-20 14:33N 49°18' W 123°04'0 0.1
2016-Nov-20 13:33N 49°18' W 123°04'0 0.0
2016-Nov-20 12:33N 49°18' W 123°04'0 0.0
2016-Nov-20 09:33N 49°18' W 123°04'0 0.0
2016-Nov-20 08:33N 49°18' W 123°04'0 0.0
2016-Nov-20 07:33N 49°18' W 123°04'0 0.0
2016-Nov-20 06:33N 49°18' W 123°04'0 0.0
2016-Nov-20 05:33N 49°18' W 123°04'0 0.0
2016-Nov-20 04:33N 49°18' W 123°04'0 0.3
2016-Nov-20 03:33N 49°18' W 123°05'15 7.5
2016-Nov-20 01:33N 49°07' W 123°20'2411.8
2016-Nov-19 23:33N 48°47' W 123°01'1111.0
2016-Nov-19 22:33N 48°41' W 123°15'19 9.5
2016-Nov-19 20:33N 48°23' W 123°16'7 6.9
2016-Nov-19 19:33N 48°19' W 123°25'14 7.2
2016-Nov-19 17:33N 48°13' W 123°45'9 8.8
2016-Nov-19 16:33N 48°14' W 123°58'17 8.2
2016-Nov-19 14:32N 48°21' W 124°21'28 9.5
2016-Nov-19 11:33N 48°23' W 125°03'10111.2
2016-Nov-19 02:33N 46°43' W 125°18'1212.1
2016-Nov-19 01:33N 46°31' W 125°19'1212.3
2016-Nov-19 00:33N 46°19' W 125°18'1211.9
2016-Nov-18 23:33N 46°07' W 125°17'3712.2
2016-Nov-18 20:33N 45°30' W 125°16'42111.0
2016-Nov-17 06:23N 38°32' W 124°05'37 9.7
2016-Nov-17 02:33N 37°59' W 123°44'10110.0
2016-Nov-16 16:28N 36°28' W 122°48'7010.0
2016-Nov-16 09:29N 35°25' W 122°10'9 9.8
2016-Nov-16 08:33N 35°17' W 122°06'11 9.6
2016-Nov-16 07:23N 35°07' W 121°59'8 9.6
2016-Nov-16 06:33N 34°60' W 121°55'2110.3
2016-Nov-16 04:33N 34°41' W 121°44'7310.3
2016-Nov-15 21:29N 34°19' W 120°19'2211.2
2016-Nov-15 19:33N 34°13' W 119°54'1211.6
2016-Nov-15 18:30N 34°10' W 119°40'5911.9
2016-Nov-15 13:33N 33°46' W 118°36'1211.5
2016-Nov-15 12:33N 33°40' W 118°24'10 9.9
2016-Nov-15 11:33N 33°40' W 118°12'4 4.5
2016-Nov-15 10:33N 33°45' W 118°12'0 0.0
2016-Nov-15 07:31N 33°45' W 118°12'0 0.0
2016-Nov-15 06:31N 33°45' W 118°12'0 0.0
2016-Nov-15 05:49N 33°45' W 118°12'0 0.0
2016-Nov-15 03:31N 33°45' W 118°12'0 0.0
2016-Nov-15 02:10N 33°45' W 118°12'0 0.0
2016-Nov-14 23:31N 33°45' W 118°12'0 0.0
2016-Nov-14 19:31N 33°45' W 118°12'0 0.0
2016-Nov-14 17:28N 33°45' W 118°12'0 0.0
2016-Nov-14 16:28N 33°45' W 118°12'0 0.0
2016-Nov-14 15:04N 33°45' W 118°12'0 0.0
2016-Nov-14 08:13N 33°45' W 118°12'0 0.0
2016-Nov-13 23:07N 33°45' W 118°12'0 0.0
2016-Nov-13 10:31N 33°45' W 118°12'0 0.0
2016-Nov-13 08:31N 33°45' W 118°12'  

Dump ship's entire track history